Time;durP1;ratioP1;P1;durP2;ratioP2;P2;SDS_P1;SDS_P2;PMS_P1;PMS_P2;Temp;Humidity;BMP_temperature;BMP_pressure;BME280_temperature;BME280_humidity;BME280_pressure;Samples;Min_cycle;Max_cycle;Signal;HPM_P1;HPM_P2
2021/12/28 00:01:24;;;;;;;20.47;14.20;;;5.00;81.70;;;7.53;64.29;99769.63;4862511;29;20263;-62
2021/12/28 00:03:53;;;;;;;17.57;13.10;;;5.10;81.70;;;7.59;64.17;99768.06;4863308;29;20217;-63
2021/12/28 00:06:21;;;;;;;18.57;13.60;;;5.10;81.70;;;7.62;64.21;99779.00;4863546;29;20588;-63
2021/12/28 00:08:49;;;;;;;19.23;13.83;;;5.10;81.70;;;7.65;63.98;99773.41;4863027;29;20201;-62
2021/12/28 00:11:17;;;;;;;17.30;13.57;;;5.20;81.70;;;7.65;64.15;99775.22;4863299;29;20693;-63
2021/12/28 00:13:45;;;;;;;17.90;13.07;;;5.20;81.70;;;7.67;64.22;99765.38;4862817;29;20248;-62
2021/12/28 00:18:46;;;;;;;16.10;12.60;;;5.30;81.50;;;7.81;63.75;99756.72;4863347;29;20191;-63
2021/12/28 00:21:14;;;;;;;17.57;12.43;;;5.30;81.40;;;7.91;63.62;99758.06;4863295;29;20278;-63
2021/12/28 00:23:41;;;;;;;17.10;12.63;;;5.30;81.30;;;7.94;63.51;99757.69;4862606;29;20296;-63
2021/12/28 00:26:13;;;;;;;15.07;11.93;;;5.40;81.30;;;7.99;63.55;99752.72;4862854;29;20597;-63
2021/12/28 00:28:42;;;;;;;16.23;12.37;;;5.40;81.20;;;8.07;63.73;99747.41;4863540;29;20200;-63
2021/12/28 00:31:11;;;;;;;16.37;13.43;;;5.40;81.00;;;8.06;62.89;99747.56;4863513;29;20684;-63
2021/12/28 00:33:39;;;;;;;17.57;12.47;;;5.40;81.00;;;8.02;62.91;99744.50;4862791;29;20274;-64
2021/12/28 00:36:06;;;;;;;16.93;13.17;;;5.50;80.90;;;8.03;62.90;99743.50;4863420;29;20225;-63
2021/12/28 00:38:35;;;;;;;16.10;12.87;;;5.50;80.80;;;8.07;62.88;99736.09;4863145;29;20254;-62
2021/12/28 00:41:04;;;;;;;18.63;13.00;;;5.50;80.80;;;8.08;63.01;99738.50;4862901;29;20201;-63
2021/12/28 00:43:34;;;;;;;17.57;12.70;;;5.50;80.80;;;8.09;63.10;99734.91;4862517;29;20311;-62
2021/12/28 00:46:02;;;;;;;17.70;13.47;;;5.50;80.80;;;8.10;63.07;99728.69;4862917;29;20200;-62
2021/12/28 00:48:30;;;;;;;16.13;13.50;;;5.60;81.00;;;8.09;63.23;99726.25;4862878;29;20204;-65
2021/12/28 00:50:58;;;;;;;15.03;12.83;;;5.60;81.00;;;8.06;63.27;99735.28;4862546;29;20201;-61
2021/12/28 00:53:26;;;;;;;15.57;12.73;;;5.60;81.00;;;8.06;63.44;99727.41;4862616;29;20218;-61
2021/12/28 00:55:53;;;;;;;14.70;11.87;;;5.60;81.00;;;8.07;63.50;99718.56;4862469;29;20255;-63
2021/12/28 00:58:22;;;;;;;17.53;12.63;;;5.60;81.10;;;8.03;63.67;99709.44;4861195;29;20288;-61
2021/12/28 01:00:52;;;;;;;14.40;12.67;;;5.60;81.20;;;8.04;63.73;99705.81;4862821;29;20571;-63
2021/12/28 01:03:20;;;;;;;16.20;12.03;;;5.60;81.10;;;8.10;63.42;99693.81;4862727;29;20231;-63
2021/12/28 01:05:48;;;;;;;15.93;11.87;;;5.60;81.00;;;8.11;63.54;99693.63;4863216;29;20635;-63
2021/12/28 01:08:16;;;;;;;14.33;12.23;;;5.60;81.20;;;8.14;63.36;99690.63;4862134;29;20204;-63
2021/12/28 01:10:48;;;;;;;17.57;12.20;;;5.60;81.30;;;8.19;63.84;99693.50;4862510;29;20208;-63
2021/12/28 01:13:17;;;;;;;14.13;12.27;;;5.70;81.30;;;8.17;63.55;99699.94;4862128;29;20214;-62
2021/12/28 01:15:46;;;;;;;14.30;11.63;;;5.70;81.40;;;8.20;63.48;99702.97;4862112;29;20234;-63
2021/12/28 01:18:14;;;;;;;14.50;12.33;;;5.70;81.20;;;8.23;63.50;99704.44;4862373;29;20194;-62
2021/12/28 01:20:44;;;;;;;16.03;11.80;;;5.70;81.30;;;8.30;63.09;99700.09;4863018;29;20626;-63
2021/12/28 01:23:13;;;;;;;15.60;12.93;;;5.80;81.20;;;8.35;63.22;99710.03;4861420;29;20628;-63
2021/12/28 01:25:41;;;;;;;15.40;12.00;;;5.80;81.20;;;8.36;62.92;99698.56;4862337;29;20274;-63
2021/12/28 01:28:09;;;;;;;16.43;13.40;;;5.80;81.20;;;8.36;63.18;99709.03;4862156;29;20196;-64
2021/12/28 01:30:40;;;;;;;16.13;12.47;;;5.80;81.10;;;8.33;63.32;99704.16;4861894;29;20203;-63
2021/12/28 01:33:08;;;;;;;13.77;10.83;;;5.80;81.00;;;8.35;63.53;99707.41;4861705;29;20636;-64
2021/12/28 01:35:38;;;;;;;15.23;12.07;;;5.80;80.90;;;8.34;63.05;99708.41;4861820;29;20327;-62
2021/12/28 01:38:07;;;;;;;14.60;11.90;;;5.90;80.90;;;8.36;63.02;99706.41;4862372;29;20207;-63
2021/12/28 01:40:38;;;;;;;14.33;11.77;;;5.90;80.80;;;8.39;62.79;99709.47;4861831;29;20204;-63
2021/12/28 01:43:12;;;;;;;14.97;11.97;;;5.90;80.70;;;8.43;62.89;99704.69;4861692;29;20220;-62
2021/12/28 01:45:45;;;;;;;14.10;11.73;;;5.90;80.70;;;8.39;63.25;99708.69;4862113;29;20197;-63
2021/12/28 01:48:17;;;;;;;14.73;12.07;;;5.90;80.70;;;8.43;62.72;99710.75;4862166;29;20202;-64
2021/12/28 01:50:48;;;;;;;15.63;12.20;;;5.90;80.70;;;8.43;62.90;99709.91;4861869;29;20205;-63
2021/12/28 01:53:17;;;;;;;14.73;12.10;;;5.80;80.80;;;8.41;63.43;99712.75;4861557;29;20246;-61
2021/12/28 01:55:51;;;;;;;14.67;12.23;;;5.90;80.70;;;8.45;62.92;99713.16;4861775;29;20224;-62
2021/12/28 01:58:19;;;;;;;15.83;12.10;;;5.90;80.70;;;8.50;62.70;99710.78;4862033;29;20196;-59
2021/12/28 02:00:50;;;;;;;13.60;10.97;;;5.90;80.70;;;8.50;62.57;99711.63;4861649;29;20193;-62
2021/12/28 02:03:21;;;;;;;14.23;11.53;;;5.90;80.70;;;8.55;62.60;99708.44;4861534;29;20224;-62
2021/12/28 02:05:50;;;;;;;17.57;12.73;;;5.90;80.70;;;8.57;62.59;99707.25;4861582;29;20206;-58
2021/12/28 02:08:18;;;;;;;16.47;12.33;;;5.90;80.70;;;8.60;62.27;99703.44;4861914;29;20198;-65
2021/12/28 02:10:50;;;;;;;15.40;12.13;;;5.90;80.70;;;8.63;62.37;99705.66;4861837;29;20228;-60
2021/12/28 02:13:18;;;;;;;14.73;11.87;;;6.00;81.40;;;8.65;62.23;99703.69;4861359;29;20765;-62
2021/12/28 02:15:46;;;;;;;16.90;12.07;;;6.00;80.80;;;8.65;62.56;99698.44;4861625;29;20763;-62
2021/12/28 02:18:20;;;;;;;14.73;12.23;;;6.00;80.60;;;8.63;62.50;99698.63;4861454;29;20204;-60
2021/12/28 02:20:51;;;;;;;14.67;11.87;;;6.00;80.70;;;8.61;62.73;99694.56;4860419;29;20202;-61
2021/12/28 02:23:19;;;;;;;14.47;11.57;;;6.00;80.70;;;8.61;62.76;99697.19;4861355;29;20220;-60
2021/12/28 02:25:47;;;;;;;13.37;11.70;;;6.00;80.60;;;8.65;62.46;99698.44;4861474;29;20197;-63
2021/12/28 02:28:14;;;;;;;14.57;11.70;;;6.00;80.70;;;8.68;62.39;99698.88;4861535;29;20279;-64
2021/12/28 02:30:46;;;;;;;14.17;12.07;;;6.00;80.70;;;8.69;62.32;99697.06;4861325;29;20652;-63
2021/12/28 02:33:14;;;;;;;15.80;12.50;;;6.00;80.70;;;8.70;62.33;99696.06;4860756;29;20711;-62
2021/12/28 02:35:42;;;;;;;13.87;11.53;;;6.10;80.80;;;8.70;62.66;99685.59;4861524;29;20626;-61
2021/12/28 02:38:12;;;;;;;15.20;12.17;;;6.00;80.70;;;8.66;62.70;99679.06;4861539;29;20623;-62
2021/12/28 02:40:43;;;;;;;15.73;12.37;;;6.10;80.70;;;8.66;62.38;99676.44;4861489;29;20200;-64
2021/12/28 02:43:14;;;;;;;14.93;11.97;;;6.10;80.60;;;8.63;62.42;99671.56;4861160;29;20292;-64
2021/12/28 02:45:50;;;;;;;13.57;11.80;;;6.10;80.60;;;8.62;62.25;99677.84;4861357;29;20198;-64
2021/12/28 02:48:19;;;;;;;13.93;11.57;;;6.10;80.60;;;8.62;62.49;99667.34;4861063;29;20196;-63
2021/12/28 02:50:54;;;;;;;14.90;12.13;;;6.10;80.60;;;8.65;62.61;99666.97;4861340;29;20204;-63
2021/12/28 02:53:24;;;;;;;14.90;11.40;;;6.10;80.60;;;8.67;62.83;99670.22;4860950;29;20245;-64
2021/12/28 02:55:54;;;;;;;15.47;12.37;;;6.10;80.60;;;8.68;62.55;99666.56;4860982;29;20233;-63
2021/12/28 02:58:29;;;;;;;14.60;12.57;;;6.10;80.60;;;8.71;62.56;99660.97;4861417;29;20226;-62
2021/12/28 03:01:02;;;;;;;13.20;11.70;;;6.10;80.60;;;8.72;62.21;99652.88;4861359;29;20192;-62
2021/12/28 03:03:33;;;;;;;14.70;11.63;;;6.10;80.60;;;8.73;62.26;99653.72;4860884;29;20605;-61
2021/12/28 03:06:03;;;;;;;17.30;12.87;;;6.20;80.70;;;8.74;62.37;99642.22;4860994;29;20584;-61
2021/12/28 03:08:36;;;;;;;16.90;13.00;;;6.20;80.70;;;8.77;62.29;99650.50;4860927;29;20728;-63
2021/12/28 03:11:07;;;;;;;14.07;12.07;;;6.20;80.70;;;8.78;62.62;99643.47;4861128;29;20694;-63
2021/12/28 03:13:38;;;;;;;16.53;12.93;;;6.20;80.90;;;8.76;62.39;99650.72;4860592;29;20217;-62
2021/12/28 03:16:06;;;;;;;15.77;12.93;;;6.20;81.00;;;8.76;62.88;99648.09;4861019;29;20290;-63
2021/12/28 03:18:35;;;;;;;15.43;11.93;;;6.20;81.00;;;8.73;62.76;99644.03;4860886;29;20236;-62
2021/12/28 03:21:06;;;;;;;16.17;12.80;;;6.20;81.10;;;8.71;63.28;99637.34;4858416;29;20688;-62
2021/12/28 03:23:39;;;;;;;16.33;12.77;;;6.10;81.20;;;8.67;63.42;99638.75;4859303;29;20319;-62
2021/12/28 03:26:08;;;;;;;17.07;13.57;;;6.10;81.30;;;8.64;63.35;99633.88;4861265;29;20195;-63
2021/12/28 03:28:39;;;;;;;15.93;13.37;;;6.10;81.40;;;8.65;63.55;99635.50;4860911;29;20288;-63
2021/12/28 03:31:09;;;;;;;17.70;13.00;;;6.10;81.50;;;8.64;63.68;99628.63;4860990;29;20664;-63
2021/12/28 03:33:40;;;;;;;17.97;14.03;;;6.10;81.60;;;8.62;63.53;99622.75;4860677;29;20322;-63
2021/12/28 03:36:10;;;;;;;15.27;12.70;;;6.10;81.70;;;8.64;63.82;99628.63;4859754;29;20228;-63
2021/12/28 03:38:41;;;;;;;15.40;12.80;;;6.10;81.70;;;8.65;63.49;99630.25;4860334;29;20562;-62
2021/12/28 03:41:10;;;;;;;14.93;13.33;;;6.10;82.60;;;8.63;63.64;99616.50;4860803;29;20196;-63
2021/12/28 03:43:41;;;;;;;16.47;12.77;;;6.10;81.90;;;8.66;63.53;99610.88;4860414;29;20253;-63
2021/12/28 03:46:09;;;;;;;15.43;12.10;;;6.10;82.00;;;8.70;63.73;99614.78;4860870;29;20240;-63
2021/12/28 03:48:38;;;;;;;17.63;14.23;;;6.10;81.90;;;8.67;63.48;99613.34;4864365;29;20193;-63
2021/12/28 03:51:06;;;;;;;15.93;13.10;;;6.10;82.20;;;8.67;63.70;99607.28;4864029;29;20199;-63
2021/12/28 03:53:34;;;;;;;16.77;13.23;;;6.10;82.10;;;8.64;64.05;99603.22;4863664;29;20247;-62
2021/12/28 03:56:07;;;;;;;15.20;12.43;;;6.10;82.00;;;8.66;63.73;99597.75;4863185;29;20225;-63
2021/12/28 03:58:36;;;;;;;16.97;12.40;;;6.10;82.00;;;8.64;63.89;99600.59;4863956;29;20284;-62
2021/12/28 04:01:05;;;;;;;15.40;12.20;;;6.10;82.00;;;8.69;63.61;99594.78;4863904;29;20259;-63
2021/12/28 04:03:32;;;;;;;14.80;12.07;;;6.10;82.00;;;8.71;63.47;99598.00;4863356;29;20271;-62
2021/12/28 04:06:07;;;;;;;16.80;13.57;;;6.10;82.00;;;8.67;63.74;99592.34;4864322;29;20194;-63
2021/12/28 04:08:35;;;;;;;15.10;12.67;;;6.10;82.10;;;8.68;63.47;99587.91;4863853;29;20202;-61
2021/12/28 04:13:43;;;;;;;16.70;13.60;;;6.10;82.00;;;8.62;63.95;99580.81;4863571;29;20214;-64
2021/12/28 04:16:11;;;;;;;17.30;13.37;;;6.10;82.00;;;8.66;63.71;99582.03;4863591;29;20587;-61
2021/12/28 04:18:38;;;;;;;17.83;13.07;;;6.10;82.00;;;8.67;63.92;99575.78;4863661;29;20207;-60
2021/12/28 04:21:07;;;;;;;15.87;13.63;;;6.10;82.20;;;8.65;64.05;99567.31;4863681;29;20365;-62
2021/12/28 04:23:35;;;;;;;18.37;13.83;;;6.10;82.20;;;8.62;63.96;99567.69;4863306;29;20267;-63
2021/12/28 04:26:06;;;;;;;16.03;13.40;;;6.10;82.00;;;8.58;63.70;99571.69;4862482;29;20289;-62
2021/12/28 04:28:33;;;;;;;15.70;13.67;;;6.10;82.00;;;8.59;64.03;99571.50;4863035;29;20189;-62
2021/12/28 04:31:01;;;;;;;15.73;13.63;;;6.10;82.00;;;8.58;64.00;99576.94;4863444;29;20213;-63
2021/12/28 04:33:29;;;;;;;15.17;13.17;;;6.10;82.00;;;8.57;64.14;99572.69;4863239;29;20218;-62
2021/12/28 04:35:56;;;;;;;17.13;14.03;;;6.10;82.10;;;8.59;63.86;99574.13;4863424;29;20225;-63
2021/12/28 04:38:23;;;;;;;16.20;13.23;;;6.10;82.20;;;8.59;63.85;99575.94;4863870;29;20205;-60
2021/12/28 04:40:51;;;;;;;17.10;13.33;;;6.10;82.20;;;8.61;64.10;99576.53;4864084;29;20207;-62
2021/12/28 04:43:20;;;;;;;15.73;13.37;;;6.10;82.20;;;8.64;63.57;99577.00;4862872;29;20220;-63
2021/12/28 04:45:48;;;;;;;15.77;12.80;;;6.10;82.30;;;8.68;63.57;99561.66;4862915;29;20199;-63
2021/12/28 04:48:15;;;;;;;17.00;13.77;;;6.10;82.20;;;8.72;63.58;99562.94;4862761;29;20603;-59
2021/12/28 04:50:44;;;;;;;17.37;13.77;;;6.10;82.20;;;8.74;63.68;99577.47;4862328;29;20647;-63
2021/12/28 04:53:13;;;;;;;15.07;12.23;;;6.10;82.20;;;8.78;63.47;99568.22;4862520;29;20296;-62
2021/12/28 04:55:43;;;;;;;14.57;12.57;;;6.20;82.30;;;8.84;63.11;99566.63;4862919;29;20241;-62
2021/12/28 04:58:13;;;;;;;16.40;13.07;;;6.20;82.20;;;8.86;63.25;99569.88;4862112;29;20197;-63
2021/12/28 05:00:45;;;;;;;14.90;13.13;;;6.20;82.20;;;8.88;63.04;99565.25;4862729;29;20542;-59
2021/12/28 05:03:15;;;;;;;16.17;12.97;;;6.20;82.10;;;8.89;63.07;99569.47;4862696;29;20281;-63
2021/12/28 05:05:46;;;;;;;15.13;12.57;;;6.20;82.10;;;8.91;63.42;99569.28;4863317;29;20223;-61
2021/12/28 05:08:15;;;;;;;15.50;12.63;;;6.30;82.10;;;8.93;63.05;99570.72;4863505;29;20211;-61
2021/12/28 05:10:43;;;;;;;13.80;12.27;;;6.30;82.10;;;8.95;63.52;99571.34;4863469;29;20664;-63
2021/12/28 05:13:11;;;;;;;15.07;11.93;;;6.30;82.10;;;8.98;63.34;99573.59;4863289;29;20260;-63
2021/12/28 05:15:42;;;;;;;15.87;12.93;;;6.30;82.10;;;8.99;62.86;99577.81;4862130;29;20241;-63
2021/12/28 05:18:13;;;;;;;14.53;12.40;;;6.30;82.10;;;9.00;62.98;99568.94;4862516;29;22004;-63
2021/12/28 05:20:41;;;;;;;14.67;13.07;;;6.30;82.00;;;9.00;63.35;99561.06;4862252;29;20217;-63
2021/12/28 05:23:09;;;;;;;15.10;12.57;;;6.30;82.00;;;9.01;63.31;99561.91;4861824;29;20217;-62
2021/12/28 05:25:37;;;;;;;15.17;13.37;;;6.30;82.00;;;9.01;62.71;99557.44;4861949;29;20200;-63
2021/12/28 05:28:05;;;;;;;17.07;13.03;;;6.30;82.00;;;9.03;63.36;99555.44;4862071;29;20188;-63
2021/12/28 05:30:34;;;;;;;15.50;12.50;;;6.40;82.00;;;9.04;63.07;99551.81;4861814;29;20192;-63
2021/12/28 05:33:03;;;;;;;16.10;12.47;;;6.40;81.90;;;9.04;63.18;99551.81;4859958;29;20327;-63
2021/12/28 05:35:32;;;;;;;16.67;13.03;;;6.40;82.70;;;9.03;63.23;99555.44;4861601;29;20205;-64
2021/12/28 05:38:00;;;;;;;15.07;12.27;;;6.40;81.90;;;9.05;62.80;99550.81;4862092;29;20680;-63
2021/12/28 05:40:28;;;;;;;16.63;13.60;;;6.40;81.70;;;9.02;63.01;99547.75;4861880;29;20232;-63
2021/12/28 05:42:55;;;;;;;15.10;12.43;;;6.40;81.70;;;9.01;62.79;99544.31;4861357;29;20626;-60
2021/12/28 05:45:22;;;;;;;16.17;13.90;;;6.40;81.60;;;9.05;62.91;99550.00;4861561;29;20257;-63
2021/12/28 05:47:50;;;;;;;14.00;12.33;;;6.40;81.70;;;9.07;62.87;99540.13;4861765;29;20591;-63
2021/12/28 05:50:18;;;;;;;15.67;13.40;;;6.40;81.70;;;9.09;62.90;99536.28;4861369;29;20249;-61
2021/12/28 05:52:47;;;;;;;15.73;13.37;;;6.40;81.70;;;9.07;63.13;99535.69;4860995;29;20284;-63
2021/12/28 05:55:14;;;;;;;14.97;13.40;;;6.40;81.70;;;9.08;62.95;99524.16;4860321;29;20684;-63
2021/12/28 05:57:41;;;;;;;16.90;13.37;;;6.40;81.80;;;9.01;62.87;99531.19;4861522;29;20280;-63
2021/12/28 06:00:11;;;;;;;15.93;13.90;;;6.40;81.90;;;8.98;63.24;99533.41;4861661;29;20244;-63
2021/12/28 06:02:39;;;;;;;15.70;12.87;;;6.40;81.80;;;8.98;63.02;99534.22;4860933;29;20507;-63
2021/12/28 06:05:07;;;;;;;18.60;13.60;;;6.40;81.70;;;8.96;63.43;99533.63;4861054;29;20209;-62
2021/12/28 06:07:35;;;;;;;15.67;13.30;;;6.40;81.80;;;8.96;63.11;99533.63;4861170;29;20566;-62
2021/12/28 06:10:06;;;;;;;17.10;13.27;;;6.40;81.80;;;8.95;63.29;99526.72;4860727;29;20201;-62
2021/12/28 06:12:34;;;;;;;16.30;13.60;;;6.40;81.80;;;8.96;63.56;99531.00;4861192;29;20194;-63
2021/12/28 06:15:01;;;;;;;14.90;13.23;;;6.40;81.80;;;8.98;63.12;99531.59;4861371;29;20293;-64
2021/12/28 06:17:29;;;;;;;15.67;12.93;;;6.40;81.80;;;9.00;62.96;99524.34;4861481;29;20220;-62
2021/12/28 06:19:56;;;;;;;14.77;12.73;;;6.40;81.80;;;8.99;63.35;99527.97;4861711;29;20210;-63
2021/12/28 06:22:23;;;;;;;15.63;12.00;;;6.40;81.70;;;8.99;63.31;99517.47;4860825;29;20202;-58
2021/12/28 06:24:52;;;;;;;14.90;13.00;;;6.40;81.70;;;8.96;63.02;99523.13;4860902;29;20279;-63
2021/12/28 06:27:20;;;;;;;15.43;13.23;;;6.30;81.70;;;8.90;63.42;99518.63;4861101;29;20196;-64
2021/12/28 06:29:48;;;;;;;17.70;13.93;;;6.30;81.70;;;8.83;63.36;99512.53;4862679;29;20261;-62
2021/12/28 06:32:15;;;;;;;16.03;12.97;;;6.30;81.80;;;8.76;63.93;99506.44;4860871;29;20198;-62
2021/12/28 06:34:43;;;;;;;14.87;12.50;;;6.30;82.00;;;8.73;63.95;99506.81;4860546;29;20681;-63
2021/12/28 06:37:10;;;;;;;17.20;13.67;;;6.30;82.00;;;8.68;63.93;99501.34;4860600;29;20230;-63
2021/12/28 06:39:37;;;;;;;15.97;12.27;;;6.20;82.00;;;8.69;64.04;99505.59;4860621;29;20224;-64
2021/12/28 06:42:06;;;;;;;16.43;12.57;;;6.20;82.00;;;8.67;64.07;99502.38;4860664;29;20399;-64
2021/12/28 06:44:34;;;;;;;18.20;13.77;;;6.20;82.00;;;8.62;64.15;99489.00;4861183;29;20218;-62
2021/12/28 06:47:02;;;;;;;16.47;12.23;;;6.20;82.10;;;8.60;63.80;99493.66;4859886;29;20787;-65
2021/12/28 06:49:30;;;;;;;14.87;13.13;;;6.10;81.90;;;8.59;63.98;99497.25;4860906;29;20281;-64
2021/12/28 06:51:57;;;;;;;13.87;11.40;;;6.10;82.00;;;8.58;63.87;99498.28;4860900;29;20202;-64
2021/12/28 06:54:27;;;;;;;15.07;12.50;;;6.10;82.00;;;8.57;64.14;99501.88;4860481;29;20692;-63
2021/12/28 06:56:55;;;;;;;14.70;12.10;;;6.00;81.90;;;8.55;64.11;99494.22;4860550;29;20222;-65
2021/12/28 06:59:22;;;;;;;14.77;11.73;;;6.00;82.00;;;8.55;63.90;99498.66;4860512;29;20231;-63
2021/12/28 07:01:51;;;;;;;14.97;11.90;;;6.00;82.00;;;8.55;63.91;99496.03;4860594;29;20217;-63
2021/12/28 07:04:18;;;;;;;15.43;11.50;;;6.00;82.00;;;8.54;63.53;99502.25;4860592;29;20628;-63
2021/12/28 07:06:45;;;;;;;17.23;13.60;;;5.90;81.90;;;8.51;63.58;99497.44;4860973;29;20204;-65
2021/12/28 07:09:13;;;;;;;17.40;13.17;;;5.90;82.20;;;8.47;63.79;99496.16;4861099;29;20308;-63
2021/12/28 07:11:41;;;;;;;17.20;13.07;;;5.90;82.00;;;8.44;63.98;99493.94;4860249;29;20287;-63
2021/12/28 07:14:08;;;;;;;16.33;12.40;;;5.90;82.20;;;8.43;63.80;99494.94;4860451;29;20741;-65
2021/12/28 07:16:36;;;;;;;16.27;13.47;;;5.80;82.10;;;8.39;63.94;99489.25;4860854;29;20573;-63
2021/12/28 07:19:09;;;;;;;15.83;13.13;;;5.80;82.30;;;8.37;64.01;99491.25;4860569;29;20248;-65
2021/12/28 07:21:37;;;;;;;16.47;12.40;;;5.80;82.40;;;8.35;64.37;99492.44;4861279;29;20190;-64
2021/12/28 07:24:06;;;;;;;15.93;12.30;;;5.80;82.40;;;8.35;64.26;99492.44;4863809;29;20298;-63
2021/12/28 07:26:36;;;;;;;15.40;12.53;;;5.80;82.60;;;8.38;64.67;99492.06;4863850;29;20197;-63
2021/12/28 07:29:04;;;;;;;17.50;13.77;;;5.80;83.00;;;8.40;64.36;99490.06;4845942;29;20224;-63
2021/12/28 07:31:32;;;;;;;16.73;13.40;;;5.80;83.30;;;8.42;64.65;99488.06;4845722;29;20312;-62
2021/12/28 07:34:00;;;;;;;16.83;13.50;;;5.80;83.30;;;8.43;64.35;99489.69;4845335;29;20713;-63
2021/12/28 07:36:29;;;;;;;15.83;12.23;;;5.80;83.40;;;8.44;64.66;99483.47;4845849;29;20255;-62
2021/12/28 07:38:57;;;;;;;16.47;13.50;;;5.80;83.40;;;8.44;64.73;99481.63;4845552;29;20284;-63
2021/12/28 07:41:24;;;;;;;16.23;13.23;;;5.90;83.40;;;8.46;64.36;99473.59;4845241;29;20218;-63
2021/12/28 07:43:52;;;;;;;16.57;12.67;;;5.90;83.30;;;8.49;64.59;99473.19;4851575;29;20311;-62
2021/12/28 07:46:19;;;;;;;15.20;12.33;;;5.90;83.20;;;8.53;64.30;99480.50;4863734;29;20228;-63
2021/12/28 07:48:47;;;;;;;17.53;13.33;;;5.90;83.10;;;8.54;64.50;99482.09;4862900;29;20208;-63
2021/12/28 07:51:14;;;;;;;16.27;12.23;;;6.00;83.20;;;8.54;64.20;99481.28;4863504;29;20218;-64
2021/12/28 07:53:43;;;;;;;16.80;13.97;;;6.00;83.10;;;8.55;64.33;99480.31;4863284;29;20238;-63
2021/12/28 07:56:10;;;;;;;14.80;13.23;;;6.00;83.00;;;8.59;64.38;99484.16;4863374;29;20233;-62
2021/12/28 07:58:38;;;;;;;14.30;12.67;;;6.00;82.90;;;8.63;64.00;99480.94;4863408;29;20193;-64
2021/12/28 08:01:05;;;;;;;14.13;12.13;;;6.00;82.90;;;8.68;64.23;99488.22;4861929;29;20286;-62
2021/12/28 08:03:33;;;;;;;15.50;12.40;;;6.00;82.90;;;8.72;63.86;99489.47;4863129;29;20224;-61
2021/12/28 08:06:00;;;;;;;16.27;12.57;;;6.00;83.00;;;8.78;63.85;99483.44;4863445;29;20222;-62
2021/12/28 08:08:27;;;;;;;19.17;11.50;;;6.10;83.20;;;8.81;63.77;99477.81;4863599;29;20340;-62
2021/12/28 08:10:57;;;;;;;19.20;13.30;;;6.10;83.00;;;8.84;63.85;99472.97;4863693;29;20276;-63
2021/12/28 08:13:24;;;;;;;16.17;13.47;;;6.10;83.00;;;8.83;63.63;99467.94;4862839;29;20695;-63
2021/12/28 08:15:52;;;;;;;18.60;12.73;;;6.20;83.00;;;8.84;63.65;99467.75;4863155;29;20212;-64
2021/12/28 08:18:19;;;;;;;18.87;12.63;;;6.20;82.80;;;8.83;63.66;99454.81;4861776;29;20257;-63
2021/12/28 08:20:47;;;;;;;15.40;12.00;;;6.20;82.80;;;8.79;63.76;99453.59;4863845;29;20667;-63
2021/12/28 08:23:15;;;;;;;14.87;12.83;;;6.20;82.80;;;8.77;63.97;99447.75;4862343;29;20301;-61
2021/12/28 08:25:42;;;;;;;15.97;11.87;;;6.20;82.80;;;8.78;63.79;99442.28;4863454;29;20193;-64
2021/12/28 08:28:12;;;;;;;14.70;12.43;;;6.20;82.50;;;8.84;63.86;99435.47;4862442;29;20208;-65
2021/12/28 08:30:39;;;;;;;16.20;11.63;;;6.20;82.70;;;8.90;63.81;99445.16;4863991;29;20195;-63
2021/12/28 08:33:09;;;;;;;16.27;11.93;;;6.30;82.70;;;8.95;63.82;99437.53;4862195;29;20638;-63
2021/12/28 08:35:39;;;;;;;19.10;12.33;;;6.30;82.90;;;9.05;63.82;99439.78;4862998;29;20225;-62
2021/12/28 08:38:08;;;;;;;13.30;11.20;;;6.30;82.90;;;9.14;63.71;99435.97;4863925;29;20222;-63
2021/12/28 08:40:37;;;;;;;14.37;11.60;;;6.40;83.00;;;9.24;63.60;99441.66;4861951;29;20666;-63
2021/12/28 08:43:04;;;;;;;16.60;11.70;;;6.40;83.10;;;9.31;62.96;99448.56;4862463;29;20213;-63
2021/12/28 08:45:34;;;;;;;12.77;11.07;;;6.50;83.10;;;9.34;63.24;99445.50;4863191;29;20193;-62
2021/12/28 08:48:02;;;;;;;15.90;11.40;;;6.60;83.00;;;9.41;63.11;99432.41;4862904;29;20728;-64
2021/12/28 08:50:29;;;;;;;13.93;11.67;;;6.60;82.80;;;9.44;63.28;99424.94;4862633;29;20308;-61
2021/12/28 08:52:56;;;;;;;13.87;10.97;;;6.70;82.80;;;9.50;63.31;99421.53;4862493;29;20226;-63
2021/12/28 08:55:25;;;;;;;15.43;11.47;;;6.70;82.50;;;9.57;62.90;99425.97;4862800;29;20384;-62
2021/12/28 08:57:53;;;;;;;13.50;10.73;;;6.70;82.50;;;9.62;62.86;99423.53;4862827;29;20217;-63
2021/12/28 09:00:24;;;;;;;14.30;10.43;;;6.80;82.60;;;9.63;62.97;99419.94;4862607;29;20197;-64
2021/12/28 09:02:55;;;;;;;16.43;11.20;;;6.90;82.40;;;9.62;62.83;99413.84;4862218;29;20295;-60
2021/12/28 09:05:25;;;;;;;13.20;11.20;;;6.90;82.20;;;9.59;62.61;99408.19;4863044;29;20697;-64
2021/12/28 09:07:53;;;;;;;16.03;11.97;;;6.90;82.00;;;9.57;63.03;99410.19;4843855;29;20276;-63
2021/12/28 09:10:25;;;;;;;14.13;10.67;;;6.90;81.90;;;9.59;62.88;99413.44;4843912;29;20197;-62
2021/12/28 09:12:52;;;;;;;15.17;10.23;;;7.00;81.90;;;9.63;62.84;99418.09;4843330;29;20218;-61
2021/12/28 09:15:20;;;;;;;16.27;11.13;;;7.00;82.10;;;9.66;62.87;99420.31;4843824;29;20280;-63
2021/12/28 09:17:47;;;;;;;13.90;10.93;;;7.00;82.10;;;9.74;63.28;99414.06;4843359;29;20676;-63
2021/12/28 09:20:21;;;;;;;15.43;12.07;;;7.10;82.10;;;9.78;62.81;99420.53;4859496;29;20314;-63
2021/12/28 09:23:08;;;;;;;13.83;11.70;;;7.10;82.70;;;9.83;62.69;99411.03;4861608;29;20235;-64
2021/12/28 09:25:36;;;;;;;15.77;12.87;;;7.20;81.90;;;9.88;63.15;99407.78;4861915;29;20205;-63
2021/12/28 09:28:06;;;;;;;14.83;11.50;;;7.20;81.80;;;9.96;62.24;99404.97;4861997;29;20193;-65
2021/12/28 09:30:34;;;;;;;16.47;11.10;;;7.30;81.80;;;10.04;62.16;99402.94;4862024;29;20730;-63
2021/12/28 09:33:02;;;;;;;14.77;11.07;;;7.30;81.80;;;10.15;62.40;99393.63;4861594;29;20577;-63
2021/12/28 09:35:31;;;;;;;12.70;10.67;;;7.40;81.80;;;10.23;62.15;99396.06;4861917;29;20223;-64
2021/12/28 09:37:59;;;;;;;14.97;10.20;;;7.50;81.60;;;10.28;61.90;99395.44;4861618;29;20218;-64
2021/12/28 09:40:31;;;;;;;14.67;10.33;;;7.50;81.20;;;10.27;61.29;99393.84;4861190;29;20642;-65
2021/12/28 09:42:58;;;;;;;14.70;10.57;;;7.50;80.90;;;10.23;61.92;99382.09;4861161;29;20220;-64
2021/12/28 09:45:27;;;;;;;15.03;11.07;;;7.60;80.60;;;10.20;61.36;99383.31;4861006;29;20223;-62
2021/12/28 09:47:56;;;;;;;16.50;11.10;;;7.60;80.40;;;10.15;61.71;99389.19;4860996;29;20256;-62
2021/12/28 09:50:23;;;;;;;13.43;11.03;;;7.60;80.30;;;10.16;61.68;99384.75;4861128;29;20291;-63
2021/12/28 09:52:53;;;;;;;12.13;10.33;;;7.60;80.30;;;10.22;61.34;99383.94;4860996;29;20753;-63
2021/12/28 09:55:29;;;;;;;13.30;9.43;;;7.60;80.50;;;10.27;61.92;99386.72;4861121;29;20248;-61
2021/12/28 09:57:58;;;;;;;14.47;9.87;;;7.60;80.50;;;10.30;61.24;99373.19;4861145;29;20330;-63
2021/12/28 10:00:27;;;;;;;14.53;10.77;;;7.60;80.40;;;10.33;61.22;99380.66;4860172;29;20290;-61
2021/12/28 10:03:13;;;;;;;11.37;9.77;;;7.70;80.40;;;10.37;61.40;99381.03;4860320;29;20216;-63
2021/12/28 10:05:41;;;;;;;13.80;10.23;;;7.70;80.50;;;10.42;61.13;99373.34;4861448;29;20253;-64
2021/12/28 10:08:12;;;;;;;14.30;10.43;;;7.70;80.50;;;10.52;61.60;99377.16;4861580;29;20287;-64
2021/12/28 10:10:43;;;;;;;11.17;9.60;;;7.80;80.70;;;10.69;61.48;99377.50;4861175;29;20273;-64
2021/12/28 10:13:19;;;;;;;15.30;10.73;;;7.90;81.00;;;10.85;61.50;99364.69;4860910;29;20256;-64
2021/12/28 10:15:50;;;;;;;12.13;9.27;;;8.00;81.20;;;11.08;61.03;99358.09;4860803;29;20200;-64
2021/12/28 10:18:19;;;;;;;13.40;9.33;;;8.10;81.40;;;11.29;60.26;99357.75;4861310;29;20237;-64
2021/12/28 10:20:51;;;;;;;11.63;9.73;;;8.30;81.10;;;11.47;59.90;99357.81;4861156;29;20570;-64
2021/12/28 10:23:24;;;;;;;18.63;11.47;;;8.40;80.70;;;11.59;59.67;99356.09;4861099;29;20216;-63
2021/12/28 10:25:54;;;;;;;13.80;9.77;;;8.60;79.90;;;11.69;59.56;99350.38;4861486;29;20667;-64
2021/12/28 10:28:25;;;;;;;10.10;8.80;;;8.70;79.80;;;11.70;58.74;99352.78;4861379;29;20562;-63
2021/12/28 10:30:56;;;;;;;13.07;10.13;;;8.80;78.80;;;11.63;58.96;99341.47;4860103;29;20287;-64